Time;durP1;ratioP1;P1;durP2;ratioP2;P2;SDS_P1;SDS_P2;PMS_P1;PMS_P2;Temp;Humidity;BMP_temperature;BMP_pressure;BME280_temperature;BME280_humidity;BME280_pressure;Samples;Min_cycle;Max_cycle;Signal;HPM_P1;HPM_P2
2022/05/01 00:01:01;;;;;;;16.73;11.17;;;;;;;;;;5047755;28;20041;-59
2022/05/01 00:03:34;;;;;;;17.57;11.83;;;;;;;;;;5031341;28;20504;-60
2022/05/01 00:06:01;;;;;;;14.55;10.23;;;;;;;;;;5048277;28;20076;-60
2022/05/01 00:08:28;;;;;;;15.43;10.27;;;;;;;;;;5030142;28;20041;-60
2022/05/01 00:10:55;;;;;;;16.97;10.47;;;;;;;;;;5035158;28;20446;-60
2022/05/01 00:13:21;;;;;;;16.60;10.57;;;;;;;;;;5040638;28;20053;-60
2022/05/01 00:15:48;;;;;;;15.23;12.20;;;;;;;;;;5029858;28;20168;-60
2022/05/01 00:18:14;;;;;;;14.27;10.37;;;;;;;;;;5035462;28;20850;-60
2022/05/01 00:20:40;;;;;;;14.23;11.00;;;;;;;;;;5041614;28;20045;-60
2022/05/01 00:23:06;;;;;;;14.97;10.07;;;;;;;;;;5042006;28;20041;-60
2022/05/01 00:25:32;;;;;;;17.10;10.90;;;;;;;;;;5048261;28;20041;-60
2022/05/01 00:27:59;;;;;;;19.53;11.00;;;;;;;;;;5052084;28;20041;-59
2022/05/01 00:30:28;;;;;;;15.07;10.33;;;;;;;;;;5043124;28;20435;-60
2022/05/01 00:38:27;;;;;;;15.67;11.50;;;;;;;;;;5031899;28;20049;-60
2022/05/01 00:40:54;;;;;;;13.97;10.87;;;;;;;;;;5047963;28;20052;-59
2022/05/01 00:43:20;;;;;;;18.10;11.97;;;;;;;;;;5040445;28;20057;-60
2022/05/01 00:45:46;;;;;;;15.90;11.03;;;;;;;;;;5040577;28;20041;-60
2022/05/01 00:48:12;;;;;;;11.90;10.30;;;;;;;;;;5050944;28;20075;-60
2022/05/01 00:50:38;;;;;;;15.63;11.10;;;;;;;;;;5051174;28;20087;-60
2022/05/01 00:53:05;;;;;;;17.07;10.57;;;;;;;;;;5031820;28;20451;-60
2022/05/01 00:55:32;;;;;;;16.20;11.50;;;;;;;;;;5031743;28;20041;-60
2022/05/01 00:57:58;;;;;;;18.37;11.30;;;;;;;;;;5031262;28;20476;-60
2022/05/01 01:00:24;;;;;;;16.90;10.93;;;;;;;;;;5037724;28;20102;-60
2022/05/01 01:02:50;;;;;;;15.70;11.30;;;;;;;;;;5042658;28;20052;-60
2022/05/01 01:05:16;;;;;;;13.43;10.40;;;;;;;;;;5043993;28;20037;-60
2022/05/01 01:07:42;;;;;;;15.47;10.80;;;;;;;;;;5042866;28;20056;-59
2022/05/01 01:10:09;;;;;;;14.97;11.83;;;;;;;;;;5031372;28;20049;-60
2022/05/01 01:12:53;;;;;;;15.13;11.30;;;;;;;;;;5031364;28;20049;-60
2022/05/01 01:15:20;;;;;;;16.77;12.00;;;;;;;;;;5043722;28;20045;-59
2022/05/01 01:17:47;;;;;;;16.07;12.10;;;;;;;;;;5034753;28;20099;-61
2022/05/01 01:20:13;;;;;;;17.97;12.60;;;;;;;;;;5042222;28;20048;-60
2022/05/01 01:22:39;;;;;;;16.77;11.67;;;;;;;;;;5035744;28;20054;-60
2022/05/01 01:25:10;;;;;;;15.80;12.13;;;;;;;;;;5039522;28;20048;-59
2022/05/01 01:27:36;;;;;;;17.70;11.70;;;;;;;;;;5043195;28;20052;-60
2022/05/01 01:32:48;;;;;;;21.47;11.30;;;;;;;;;;5036594;28;20063;-60
2022/05/01 01:35:15;;;;;;;16.63;13.57;;;;;;;;;;5033997;28;20168;-59
2022/05/01 01:37:45;;;;;;;19.23;12.73;;;;;;;;;;5049454;28;20094;-60
2022/05/01 01:40:14;;;;;;;17.73;12.00;;;;;;;;;;5033824;28;20044;-60
2022/05/01 01:42:40;;;;;;;20.13;12.80;;;;;;;;;;5047255;28;20487;-60
2022/05/01 01:45:08;;;;;;;17.40;12.37;;;;;;;;;;5030517;28;20072;-60
2022/05/01 01:47:34;;;;;;;16.47;12.23;;;;;;;;;;5046824;28;20152;-60
2022/05/01 01:50:00;;;;;;;18.50;12.47;;;;;;;;;;5036641;28;20199;-60
2022/05/01 01:52:26;;;;;;;25.27;12.97;;;;;;;;;;5039917;28;20052;-60
2022/05/01 01:54:52;;;;;;;21.20;12.53;;;;;;;;;;5043147;28;20048;-60
2022/05/01 01:57:18;;;;;;;16.80;11.67;;;;;;;;;;5049990;28;20036;-60
2022/05/01 01:59:44;;;;;;;20.20;11.87;;;;;;;;;;5033322;28;20529;-60
2022/05/01 02:02:10;;;;;;;16.53;12.07;;;;;;;;;;5043747;28;20132;-60
2022/05/01 02:04:36;;;;;;;20.10;12.67;;;;;;;;;;5030935;28;20804;-60
2022/05/01 02:07:02;;;;;;;15.70;12.53;;;;;;;;;;5030490;28;20046;-60
2022/05/01 02:09:30;;;;;;;20.73;12.83;;;;;;;;;;5044976;28;20049;-60
2022/05/01 02:11:57;;;;;;;14.93;11.70;;;;;;;;;;5040804;28;20056;-59
2022/05/01 02:14:23;;;;;;;18.97;13.13;;;;;;;;;;5043777;28;20049;-60
2022/05/01 02:16:50;;;;;;;17.30;13.10;;;;;;;;;;5044280;28;20056;-60
2022/05/01 02:19:16;;;;;;;16.13;12.53;;;;;;;;;;5037242;28;20049;-60
2022/05/01 02:21:42;;;;;;;19.20;13.43;;;;;;;;;;5046126;28;20048;-60
2022/05/01 02:24:12;;;;;;;22.83;14.47;;;;;;;;;;5030544;28;20050;-60
2022/05/01 02:26:39;;;;;;;16.60;12.60;;;;;;;;;;5039236;28;20130;-60
2022/05/01 02:29:12;;;;;;;18.17;12.23;;;;;;;;;;5029326;28;20224;-60
2022/05/01 02:31:39;;;;;;;21.05;12.80;;;;;;;;;;5037845;28;20373;-60
2022/05/01 02:34:05;;;;;;;14.23;11.60;;;;;;;;;;5046800;28;20052;-60
2022/05/01 02:36:31;;;;;;;16.40;12.03;;;;;;;;;;5037479;28;20095;-59
2022/05/01 02:38:57;;;;;;;17.60;11.30;;;;;;;;;;5029992;28;20053;-60
2022/05/01 02:41:23;;;;;;;19.40;12.57;;;;;;;;;;5028715;28;20080;-60
2022/05/01 02:43:49;;;;;;;16.57;12.70;;;;;;;;;;5029930;28;20511;-60
2022/05/01 02:46:15;;;;;;;15.97;12.23;;;;;;;;;;5029738;28;20069;-60
2022/05/01 02:48:42;;;;;;;18.73;12.70;;;;;;;;;;5038224;28;20037;-60
2022/05/01 02:51:08;;;;;;;16.93;13.40;;;;;;;;;;5029016;28;20205;-60
2022/05/01 02:53:34;;;;;;;22.53;12.70;;;;;;;;;;5029136;28;20045;-60
2022/05/01 02:56:00;;;;;;;21.37;12.90;;;;;;;;;;5035186;28;20037;-60
2022/05/01 02:58:29;;;;;;;19.47;13.37;;;;;;;;;;5039590;28;20052;-60
2022/05/01 03:00:56;;;;;;;20.47;13.67;;;;;;;;;;5039961;28;20179;-60
2022/05/01 03:03:22;;;;;;;19.17;13.83;;;;;;;;;;5048519;28;20467;-60
2022/05/01 03:05:48;;;;;;;17.70;12.70;;;;;;;;;;5032806;28;20585;-59
2022/05/01 03:08:14;;;;;;;19.97;14.73;;;;;;;;;;5041416;28;20049;-60
2022/05/01 03:10:40;;;;;;;23.53;14.00;;;;;;;;;;5036389;28;20491;-61
2022/05/01 03:13:06;;;;;;;18.87;14.07;;;;;;;;;;5048446;28;20133;-60
2022/05/01 03:15:32;;;;;;;20.43;14.87;;;;;;;;;;5032944;28;20072;-60
2022/05/01 03:23:28;;;;;;;20.87;13.83;;;;;;;;;;5028955;28;20049;-60
2022/05/01 03:25:54;;;;;;;21.00;14.23;;;;;;;;;;5028556;28;20125;-60
2022/05/01 03:28:20;;;;;;;20.27;15.37;;;;;;;;;;5037045;28;20475;-60
2022/05/01 03:30:46;;;;;;;22.37;15.10;;;;;;;;;;5035951;28;20591;-60
2022/05/01 03:33:12;;;;;;;19.43;15.20;;;;;;;;;;5029480;28;20084;-60
2022/05/01 03:35:38;;;;;;;18.67;14.90;;;;;;;;;;5042267;28;20274;-60
2022/05/01 03:38:06;;;;;;;22.07;14.50;;;;;;;;;;5047421;28;20076;-60
2022/05/01 03:40:35;;;;;;;22.83;15.20;;;;;;;;;;5035475;28;20041;-60
2022/05/01 03:43:02;;;;;;;22.33;16.10;;;;;;;;;;5044856;28;21060;-60
2022/05/01 03:45:28;;;;;;;21.20;14.93;;;;;;;;;;5041339;28;20049;-60
2022/05/01 03:47:54;;;;;;;21.20;14.47;;;;;;;;;;5039505;28;20044;-60
2022/05/01 03:50:20;;;;;;;22.20;16.40;;;;;;;;;;5036317;28;20053;-60
2022/05/01 03:52:46;;;;;;;24.13;16.67;;;;;;;;;;5032389;28;20041;-60
2022/05/01 03:55:13;;;;;;;22.50;16.03;;;;;;;;;;5051876;28;20068;-60
2022/05/01 03:57:39;;;;;;;22.97;17.00;;;;;;;;;;5034719;28;20041;-60
2022/05/01 04:00:06;;;;;;;20.87;16.13;;;;;;;;;;5042319;28;20495;-60
2022/05/01 04:02:39;;;;;;;26.73;18.00;;;;;;;;;;5043541;28;20041;-60
2022/05/01 04:05:06;;;;;;;23.10;17.95;;;;;;;;;;5035155;28;20033;-60
2022/05/01 04:07:32;;;;;;;25.53;18.80;;;;;;;;;;5051688;28;20095;-60
2022/05/01 04:09:58;;;;;;;22.63;17.47;;;;;;;;;;5043248;28;20045;-61
2022/05/01 04:12:24;;;;;;;26.83;18.07;;;;;;;;;;5034302;28;20045;-60
2022/05/01 04:14:50;;;;;;;27.50;18.97;;;;;;;;;;5034783;28;20103;-60
2022/05/01 04:17:16;;;;;;;21.03;16.77;;;;;;;;;;5035006;28;20059;-60
2022/05/01 04:19:42;;;;;;;23.20;16.27;;;;;;;;;;5035009;28;20063;-60
2022/05/01 04:22:08;;;;;;;25.53;17.73;;;;;;;;;;5034173;28;20454;-60
2022/05/01 04:24:34;;;;;;;27.03;18.27;;;;;;;;;;5034366;28;20049;-60
2022/05/01 04:27:02;;;;;;;28.23;18.33;;;;;;;;;;5045846;28;20041;-60
2022/05/01 04:29:38;;;;;;;24.70;17.97;;;;;;;;;;5035988;28;20498;-60
2022/05/01 04:32:05;;;;;;;24.80;17.50;;;;;;;;;;5034037;28;20535;-60
2022/05/01 04:34:32;;;;;;;25.60;18.17;;;;;;;;;;5034453;28;20077;-60
2022/05/01 04:36:58;;;;;;;23.30;15.87;;;;;;;;;;5034102;28;20041;-60
2022/05/01 04:39:24;;;;;;;27.00;16.70;;;;;;;;;;5041713;28;20045;-60
2022/05/01 04:41:50;;;;;;;26.37;17.43;;;;;;;;;;5036873;28;20179;-60
2022/05/01 04:44:16;;;;;;;25.83;17.43;;;;;;;;;;5054246;28;20116;-60
2022/05/01 04:46:43;;;;;;;23.97;17.27;;;;;;;;;;5043394;28;20452;-60
2022/05/01 04:49:09;;;;;;;23.90;18.13;;;;;;;;;;5034297;28;20049;-60
2022/05/01 04:51:35;;;;;;;25.07;17.07;;;;;;;;;;5034422;28;20041;-60
2022/05/01 04:54:01;;;;;;;25.57;17.97;;;;;;;;;;5037782;28;20588;-61
2022/05/01 04:59:13;;;;;;;23.27;16.00;;;;;;;;;;5045452;28;20414;-59
2022/05/01 05:01:41;;;;;;;24.80;17.50;;;;;;;;;;5052646;28;20119;-60
2022/05/01 05:04:07;;;;;;;27.07;18.37;;;;;;;;;;5031133;28;20507;-60
2022/05/01 05:06:33;;;;;;;27.03;18.87;;;;;;;;;;5045956;28;20063;-60
2022/05/01 05:11:44;;;;;;;25.17;18.93;;;;;;;;;;5049901;28;20133;-60
2022/05/01 05:14:10;;;;;;;27.60;18.50;;;;;;;;;;5030296;28;20096;-60
2022/05/01 05:16:36;;;;;;;27.23;21.37;;;;;;;;;;5039384;28;20038;-61
2022/05/01 05:19:02;;;;;;;31.00;19.60;;;;;;;;;;5031002;28;20060;-60
2022/05/01 05:21:28;;;;;;;24.30;18.20;;;;;;;;;;5036385;28;20530;-60
2022/05/01 05:23:55;;;;;;;24.50;19.27;;;;;;;;;;5032804;28;20048;-60
2022/05/01 05:26:21;;;;;;;22.07;18.77;;;;;;;;;;5030875;28;20056;-60
2022/05/01 05:28:47;;;;;;;25.37;20.30;;;;;;;;;;5030339;28;20053;-60
2022/05/01 05:31:13;;;;;;;27.57;18.93;;;;;;;;;;5041602;28;20053;-60
2022/05/01 05:33:39;;;;;;;24.83;19.30;;;;;;;;;;5041744;28;20072;-60
2022/05/01 05:36:05;;;;;;;25.57;18.10;;;;;;;;;;5033453;28;20134;-60
2022/05/01 05:38:33;;;;;;;24.13;18.17;;;;;;;;;;5048738;28;20041;-60
2022/05/01 05:40:59;;;;;;;21.37;17.10;;;;;;;;;;5041618;28;20547;-60
2022/05/01 05:43:25;;;;;;;26.07;18.77;;;;;;;;;;5046105;28;20125;-60
2022/05/01 05:45:51;;;;;;;23.23;18.03;;;;;;;;;;5037292;28;20140;-60
2022/05/01 05:48:17;;;;;;;21.07;16.10;;;;;;;;;;5039500;28;20033;-60
2022/05/01 05:50:43;;;;;;;22.07;17.40;;;;;;;;;;5030530;28;20049;-60
2022/05/01 05:53:09;;;;;;;22.27;17.10;;;;;;;;;;5041141;28;20053;-60
2022/05/01 05:55:35;;;;;;;23.97;17.60;;;;;;;;;;5040982;28;20048;-60
2022/05/01 05:58:02;;;;;;;23.53;18.07;;;;;;;;;;5033094;28;20653;-60
2022/05/01 06:00:28;;;;;;;20.43;16.67;;;;;;;;;;5038756;28;20083;-60
2022/05/01 06:02:54;;;;;;;25.07;18.17;;;;;;;;;;5038306;28;20482;-60
2022/05/01 06:05:20;;;;;;;23.53;18.27;;;;;;;;;;5029664;28;20049;-60
2022/05/01 06:07:46;;;;;;;22.37;16.87;;;;;;;;;;5034777;28;20060;-61
2022/05/01 06:10:12;;;;;;;22.07;16.90;;;;;;;;;;5047766;28;20037;-60
2022/05/01 06:12:44;;;;;;;22.10;16.20;;;;;;;;;;5028216;28;20055;-61
2022/05/01 06:15:11;;;;;;;21.50;16.50;;;;;;;;;;5037522;28;20503;-60
2022/05/01 06:17:38;;;;;;;22.50;16.57;;;;;;;;;;5029483;28;20052;-60
2022/05/01 06:20:04;;;;;;;23.87;15.60;;;;;;;;;;5028945;28;20041;-60
2022/05/01 06:22:30;;;;;;;19.90;15.63;;;;;;;;;;5030689;28;20038;-60
2022/05/01 06:24:56;;;;;;;19.20;15.67;;;;;;;;;;5043532;28;20402;-61
2022/05/01 06:27:22;;;;;;;24.07;17.50;;;;;;;;;;5030557;28;20057;-60
2022/05/01 06:29:48;;;;;;;19.90;16.17;;;;;;;;;;5032449;28;20057;-60
2022/05/01 06:32:19;;;;;;;24.90;16.90;;;;;;;;;;5029785;28;20128;-61
2022/05/01 06:34:46;;;;;;;20.80;15.33;;;;;;;;;;5031837;28;20407;-60
2022/05/01 06:37:12;;;;;;;22.53;16.37;;;;;;;;;;5033406;28;20033;-61
2022/05/01 06:39:38;;;;;;;22.23;15.63;;;;;;;;;;5037696;28;20049;-60
2022/05/01 06:42:05;;;;;;;21.33;16.83;;;;;;;;;;5039238;28;20174;-60
2022/05/01 06:44:31;;;;;;;20.90;16.67;;;;;;;;;;5039688;28;20440;-61
2022/05/01 06:46:57;;;;;;;22.37;16.53;;;;;;;;;;5037560;28;20505;-60
2022/05/01 06:49:23;;;;;;;19.63;15.73;;;;;;;;;;5037988;28;20150;-61
2022/05/01 06:51:49;;;;;;;25.27;17.10;;;;;;;;;;5037686;28;20080;-60
2022/05/01 06:54:15;;;;;;;21.37;16.03;;;;;;;;;;5035997;28;20212;-61
2022/05/01 06:56:44;;;;;;;22.33;16.30;;;;;;;;;;5032757;28;20671;-60
2022/05/01 06:59:10;;;;;;;23.70;17.67;;;;;;;;;;5036764;28;20052;-60
2022/05/01 07:01:36;;;;;;;20.50;16.30;;;;;;;;;;5040114;28;20056;-61
2022/05/01 07:04:02;;;;;;;20.83;16.07;;;;;;;;;;5041412;28;20040;-60
2022/05/01 07:06:28;;;;;;;23.20;15.97;;;;;;;;;;5038967;28;20502;-60
2022/05/01 07:08:54;;;;;;;21.40;15.37;;;;;;;;;;5036489;28;20712;-61
2022/05/01 07:11:20;;;;;;;21.50;15.17;;;;;;;;;;5036743;28;20163;-61
2022/05/01 07:13:46;;;;;;;19.37;15.23;;;;;;;;;;5037202;28;20560;-60
2022/05/01 07:16:12;;;;;;;18.67;13.87;;;;;;;;;;5040684;28;20136;-60
2022/05/01 07:18:38;;;;;;;17.50;14.27;;;;;;;;;;5036761;28;20049;-61
2022/05/01 07:21:04;;;;;;;17.53;13.97;;;;;;;;;;5037749;28;20073;-61
2022/05/01 07:23:30;;;;;;;15.97;13.43;;;;;;;;;;5035161;28;20080;-62
2022/05/01 07:25:57;;;;;;;18.67;14.00;;;;;;;;;;5037724;28;20534;-61
2022/05/01 07:28:23;;;;;;;19.53;14.50;;;;;;;;;;5039246;28;20080;-61
2022/05/01 07:30:49;;;;;;;15.83;13.43;;;;;;;;;;5038499;28;20079;-61
2022/05/01 07:33:15;;;;;;;17.63;12.90;;;;;;;;;;5038723;28;20044;-61
2022/05/01 07:35:41;;;;;;;17.70;12.77;;;;;;;;;;5035581;28;20068;-61
2022/05/01 07:38:07;;;;;;;15.83;13.27;;;;;;;;;;5036679;28;20037;-61
2022/05/01 07:40:33;;;;;;;16.93;13.03;;;;;;;;;;5040714;28;20057;-61
2022/05/01 07:42:59;;;;;;;15.80;13.17;;;;;;;;;;5041417;28;20037;-61
2022/05/01 07:45:25;;;;;;;16.50;12.07;;;;;;;;;;5041289;28;20048;-61
2022/05/01 07:47:51;;;;;;;17.20;12.67;;;;;;;;;;5035758;28;20048;-61
2022/05/01 07:50:18;;;;;;;17.43;12.33;;;;;;;;;;5033384;28;20049;-61
2022/05/01 07:52:44;;;;;;;14.63;11.93;;;;;;;;;;5035515;28;20127;-61
2022/05/01 07:55:10;;;;;;;15.83;11.40;;;;;;;;;;5033563;28;20053;-61
2022/05/01 07:57:36;;;;;;;15.87;10.63;;;;;;;;;;5016769;28;20373;-61
2022/05/01 08:00:02;;;;;;;13.20;10.67;;;;;;;;;;5039111;28;20106;-61
2022/05/01 08:05:24;;;;;;;13.50;10.60;;;;;;;;;;5010476;28;20141;-60
2022/05/01 08:07:51;;;;;;;15.30;10.20;;;;;;;;;;5034891;28;20041;-61
2022/05/01 08:10:17;;;;;;;13.77;10.50;;;;;;;;;;5034316;28;20084;-61
2022/05/01 08:12:43;;;;;;;12.10;9.13;;;;;;;;;;5038579;28;20040;-61
2022/05/01 08:15:10;;;;;;;12.33;9.00;;;;;;;;;;5040592;28;20102;-61
2022/05/01 08:17:36;;;;;;;10.00;7.27;;;;;;;;;;5039543;28;20478;-61
2022/05/01 08:22:46;;;;;;;8.93;7.03;;;;;;;;;;5038011;28;20060;-61
2022/05/01 08:25:12;;;;;;;9.63;6.43;;;;;;;;;;5039286;28;20045;-61
2022/05/01 08:27:41;;;;;;;8.30;5.47;;;;;;;;;;5035143;28;20706;-61
2022/05/01 08:30:07;;;;;;;8.90;5.63;;;;;;;;;;5036941;28;20057;-61
2022/05/01 08:32:34;;;;;;;10.70;7.53;;;;;;;;;;5037527;28;20121;-61
2022/05/01 08:35:00;;;;;;;9.53;7.27;;;;;;;;;;5040188;28;20162;-61
2022/05/01 08:37:26;;;;;;;8.53;6.17;;;;;;;;;;5030494;28;20651;-61
2022/05/01 08:39:52;;;;;;;8.70;5.73;;;;;;;;;;5028760;28;20044;-61
2022/05/01 08:42:18;;;;;;;7.37;5.60;;;;;;;;;;5034793;28;20049;-61
2022/05/01 08:44:46;;;;;;;8.13;6.07;;;;;;;;;;5045849;28;20124;-61
2022/05/01 08:47:16;;;;;;;6.60;5.43;;;;;;;;;;5022737;28;20486;-61
2022/05/01 08:49:43;;;;;;;9.80;6.03;;;;;;;;;;5039365;28;20052;-61
2022/05/01 08:52:09;;;;;;;10.13;7.03;;;;;;;;;;5043564;28;20038;-62
2022/05/01 08:54:37;;;;;;;7.20;6.23;;;;;;;;;;5038269;28;20037;-61
2022/05/01 08:57:03;;;;;;;10.20;6.00;;;;;;;;;;5040937;28;20049;-61
2022/05/01 08:59:31;;;;;;;7.87;6.00;;;;;;;;;;5043103;28;20050;-61
2022/05/01 09:01:58;;;;;;;9.07;6.30;;;;;;;;;;5041548;28;20064;-61
2022/05/01 09:04:25;;;;;;;7.83;6.00;;;;;;;;;;5034739;28;20050;-61
2022/05/01 09:06:52;;;;;;;6.73;5.07;;;;;;;;;;5034758;28;20124;-61
2022/05/01 09:09:18;;;;;;;8.57;5.80;;;;;;;;;;5045012;28;20045;-61
2022/05/01 09:14:32;;;;;;;7.30;5.73;;;;;;;;;;5036267;28;20495;-61
2022/05/01 09:17:16;;;;;;;11.03;5.93;;;;;;;;;;5039590;28;20453;-61
2022/05/01 09:19:42;;;;;;;;;;;;;;;;;;5042077;28;20059;-61
2022/05/01 09:22:08;;;;;;;7.50;4.83;;;;;;;;;;5037626;28;19921;-61
2022/05/01 09:24:34;;;;;;;7.47;5.20;;;;;;;;;;5043954;28;20044;-61
2022/05/01 09:27:01;;;;;;;6.47;5.23;;;;;;;;;;5048734;28;20127;-61
2022/05/01 09:29:34;;;;;;;6.43;4.53;;;;;;;;;;5045494;28;20495;-61
2022/05/01 09:32:03;;;;;;;6.83;4.90;;;;;;;;;;5037301;28;20886;-62
2022/05/01 09:34:31;;;;;;;7.10;4.90;;;;;;;;;;5034139;28;20116;-62
2022/05/01 09:36:58;;;;;;;6.83;4.43;;;;;;;;;;5032603;28;20124;-62
2022/05/01 09:39:47;;;;;;;7.97;4.70;;;;;;;;;;5041469;28;20125;-62
2022/05/01 09:42:25;;;;;;;6.53;4.43;;;;;;;;;;5032479;28;20051;-62
2022/05/01 09:45:07;;;;;;;6.20;4.10;;;;;;;;;;5046419;28;20570;-61
2022/05/01 09:47:36;;;;;;;6.75;4.93;;;;;;;;;;5039484;28;20515;-62
2022/05/01 09:50:05;;;;;;;8.30;4.67;;;;;;;;;;5037095;28;20588;-62
2022/05/01 09:52:49;;;;;;;6.50;4.23;;;;;;;;;;5044778;28;20052;-62
2022/05/01 09:55:16;;;;;;;6.00;4.30;;;;;;;;;;5036114;28;20091;-61
2022/05/01 09:57:42;;;;;;;6.50;4.73;;;;;;;;;;5037338;28;20094;-62
2022/05/01 10:00:08;;;;;;;6.60;4.10;;;;;;;;;;5037921;28;20380;-62
2022/05/01 10:02:34;;;;;;;5.03;4.23;;;;;;;;;;5039185;28;20040;-62
2022/05/01 10:05:03;;;;;;;6.13;5.00;;;;;;;;;;5039971;28;20040;-62
2022/05/01 10:07:39;;;;;;;7.03;4.40;;;;;;;;;;5037571;28;20065;-62
2022/05/01 10:10:07;;;;;;;9.47;5.47;;;;;;;;;;5037551;28;20045;-62
2022/05/01 10:12:36;;;;;;;6.23;4.83;;;;;;;;;;5040687;28;20080;-61
2022/05/01 10:15:03;;;;;;;8.07;5.43;;;;;;;;;;5040898;28;20138;-62
2022/05/01 10:17:30;;;;;;;6.22;4.93;;;;;;;;;;5039532;28;20049;-62
2022/05/01 10:19:57;;;;;;;8.13;5.20;;;;;;;;;;5037227;28;20045;-61
2022/05/01 10:22:23;;;;;;;6.37;4.97;;;;;;;;;;5037124;28;20041;-62
2022/05/01 10:24:49;;;;;;;6.00;4.53;;;;;;;;;;5041727;28;20052;-62
2022/05/01 10:27:23;;;;;;;7.53;4.32;;;;;;;;;;5030937;28;20108;-61
2022/05/01 10:32:47;;;;;;;5.75;4.07;;;;;;;;;;5047812;28;20052;-62
2022/05/01 10:35:24;;;;;;;7.13;4.30;;;;;;;;;;5045185;28;20092;-62
2022/05/01 10:38:05;;;;;;;5.95;4.47;;;;;;;;;;5036636;28;20140;-61
2022/05/01 10:40:55;;;;;;;6.47;4.38;;;;;;;;;;5036572;28;20052;-62
2022/05/01 10:43:33;;;;;;;6.72;4.63;;;;;;;;;;5039688;28;20098;-62
2022/05/01 10:45:59;;;;;;;7.50;4.68;;;;;;;;;;5034857;28;20516;-61
2022/05/01 10:48:31;;;;;;;4.22;3.72;;;;;;;;;;5035511;28;20042;-62
2022/05/01 10:51:17;;;;;;;4.78;3.63;;;;;;;;;;5030594;28;20072;-62
2022/05/01 10:53:44;;;;;;;6.18;4.38;;;;;;;;;;5038359;28;20072;-61
2022/05/01 10:56:22;;;;;;;6.30;3.80;;;;;;;;;;5045643;28;20056;-61
2022/05/01 10:58:49;;;;;;;5.38;4.00;;;;;;;;;;5039951;28;20417;-62
2022/05/01 11:01:15;;;;;;;5.17;3.80;;;;;;;;;;5037803;28;20045;-61
2022/05/01 11:03:51;;;;;;;4.23;3.57;;;;;;;;;;5043080;28;20036;-62
2022/05/01 11:06:20;;;;;;;4.90;3.73;;;;;;;;;;5036613;28;20056;-61
2022/05/01 11:08:47;;;;;;;5.27;3.47;;;;;;;;;;5037767;28;20041;-62
2022/05/01 11:11:13;;;;;;;5.87;3.70;;;;;;;;;;5038026;28;20051;-61
2022/05/01 11:13:40;;;;;;;4.97;3.37;;;;;;;;;;5041589;28;20965;-61
2022/05/01 11:16:09;;;;;;;5.37;3.63;;;;;;;;;;5031571;28;20044;-61
2022/05/01 11:18:36;;;;;;;4.57;3.53;;;;;;;;;;5036422;28;20044;-61
2022/05/01 11:21:35;;;;;;;7.70;4.27;;;;;;;;;;5039963;28;20080;-61
2022/05/01 11:24:02;;;;;;;7.63;4.13;;;;;;;;;;5015400;28;20053;-61
2022/05/01 11:26:28;;;;;;;5.83;4.37;;;;;;;;;;5028674;28;20048;-61
2022/05/01 11:28:55;;;;;;;7.53;3.63;;;;;;;;;;5041868;28;20415;-61
2022/05/01 11:31:37;;;;;;;6.23;3.73;;;;;;;;;;5041394;28;20056;-61
2022/05/01 11:34:24;;;;;;;5.83;3.33;;;;;;;;;;5044303;28;20123;-61
2022/05/01 11:36:50;;;;;;;5.80;3.60;;;;;;;;;;5033851;28;20066;-61
2022/05/01 11:39:16;;;;;;;4.07;3.50;;;;;;;;;;5033747;28;20040;-61
2022/05/01 11:41:42;;;;;;;6.63;4.27;;;;;;;;;;5032602;28;20091;-61
2022/05/01 11:44:22;;;;;;;4.30;3.13;;;;;;;;;;5034889;28;20041;-62
2022/05/01 11:46:49;;;;;;;3.97;3.33;;;;;;;;;;5042610;28;20041;-61
2022/05/01 11:49:15;;;;;;;7.20;3.40;;;;;;;;;;5039735;28;20047;-61
2022/05/01 11:51:41;;;;;;;5.57;3.50;;;;;;;;;;5030813;28;20067;-61
2022/05/01 11:54:10;;;;;;;5.27;3.10;;;;;;;;;;5037448;28;20060;-61
2022/05/01 12:04:51;;;;;;;5.47;3.63;;;;;;;;;;5037288;28;20049;-61
2022/05/01 12:07:18;;;;;;;4.87;3.73;;;;;;;;;;5031934;28;20474;-61
2022/05/01 12:09:46;;;;;;;4.97;3.43;;;;;;;;;;5032767;28;20052;-62
2022/05/01 12:12:13;;;;;;;7.03;4.43;;;;;;;;;;5036587;28;20045;-61
2022/05/01 12:14:39;;;;;;;4.87;3.70;;;;;;;;;;5039600;28;20565;-61
2022/05/01 12:17:07;;;;;;;3.77;3.23;;;;;;;;;;5042849;28;20075;-61
2022/05/01 12:19:36;;;;;;;5.60;3.43;;;;;;;;;;5039504;28;20440;-61
2022/05/01 12:22:02;;;;;;;6.67;3.60;;;;;;;;;;5038241;28;20055;-61
2022/05/01 12:24:29;;;;;;;4.63;3.53;;;;;;;;;;5040754;28;20720;-61
2022/05/01 12:26:55;;;;;;;5.13;3.00;;;;;;;;;;5038626;28;20056;-61
2022/05/01 12:29:21;;;;;;;5.43;3.10;;;;;;;;;;5037859;28;20061;-61
2022/05/01 12:32:07;;;;;;;7.97;3.97;;;;;;;;;;5043317;28;20051;-61
2022/05/01 12:34:38;;;;;;;4.73;3.43;;;;;;;;;;5041906;28;20045;-61
2022/05/01 12:37:05;;;;;;;5.80;3.43;;;;;;;;;;5040888;28;20103;-61
2022/05/01 12:39:32;;;;;;;5.87;3.50;;;;;;;;;;5036455;28;20083;-61
2022/05/01 12:45:08;;;;;;;5.03;3.60;;;;;;;;;;5042257;28;20051;-61
2022/05/01 12:47:37;;;;;;;5.50;3.40;;;;;;;;;;5036035;28;20053;-61
2022/05/01 12:50:04;;;;;;;6.10;3.87;;;;;;;;;;5044517;28;20045;-61
2022/05/01 12:52:30;;;;;;;3.93;3.33;;;;;;;;;;5041774;28;20582;-60
2022/05/01 12:55:17;;;;;;;4.80;3.17;;;;;;;;;;5043763;28;20494;-61
2022/05/01 12:57:50;;;;;;;6.30;3.13;;;;;;;;;;5041286;28;20041;-61
2022/05/01 13:00:35;;;;;;;6.00;3.67;;;;;;;;;;5040038;28;21117;-61
2022/05/01 13:03:13;;;;;;;6.63;3.23;;;;;;;;;;5039323;28;20037;-61
2022/05/01 13:05:39;;;;;;;5.67;3.10;;;;;;;;;;5043234;28;20045;-61
2022/05/01 13:08:21;;;;;;;5.43;3.30;;;;;;;;;;5034772;28;20567;-61
2022/05/01 13:11:06;;;;;;;5.17;3.40;;;;;;;;;;5033344;28;20582;-61
2022/05/01 13:13:41;;;;;;;4.80;3.17;;;;;;;;;;5049053;28;20045;-61
2022/05/01 13:16:07;;;;;;;5.50;3.40;;;;;;;;;;5033816;28;20037;-61
2022/05/01 13:18:33;;;;;;;6.63;3.33;;;;;;;;;;5034129;28;20091;-61
2022/05/01 13:20:59;;;;;;;5.80;3.23;;;;;;;;;;5038892;28;20565;-61
2022/05/01 13:23:25;;;;;;;5.37;3.20;;;;;;;;;;5031801;28;20041;-61
2022/05/01 13:25:51;;;;;;;4.53;3.00;;;;;;;;;;5045199;28;20052;-61
2022/05/01 13:28:17;;;;;;;7.07;2.93;;;;;;;;;;5030668;28;20037;-61
2022/05/01 13:30:43;;;;;;;4.30;3.03;;;;;;;;;;5039246;28;20592;-61
2022/05/01 13:33:09;;;;;;;4.63;3.23;;;;;;;;;;5033237;28;20034;-61
2022/05/01 13:35:36;;;;;;;5.67;3.43;;;;;;;;;;5047477;28;20095;-61
2022/05/01 13:38:02;;;;;;;5.43;3.23;;;;;;;;;;5040550;28;20037;-61
2022/05/01 13:45:58;;;;;;;5.07;3.17;;;;;;;;;;5037797;28;20045;-61
2022/05/01 13:48:24;;;;;;;7.77;3.53;;;;;;;;;;5036148;28;20084;-61
2022/05/01 13:50:51;;;;;;;5.30;3.43;;;;;;;;;;5040216;28;20128;-61
2022/05/01 13:53:17;;;;;;;7.23;3.50;;;;;;;;;;5042564;28;20418;-60
2022/05/01 13:55:43;;;;;;;4.47;3.40;;;;;;;;;;5042005;28;20071;-60
2022/05/01 13:58:09;;;;;;;4.33;3.07;;;;;;;;;;5038133;28;20041;-60
2022/05/01 14:00:36;;;;;;;6.87;3.67;;;;;;;;;;5038988;28;20049;-61
2022/05/01 14:03:07;;;;;;;6.90;3.10;;;;;;;;;;5037100;28;20426;-61
2022/05/01 14:05:33;;;;;;;6.37;3.53;;;;;;;;;;5037635;28;20057;-61
2022/05/01 14:07:59;;;;;;;4.87;3.33;;;;;;;;;;5036736;28;20056;-61
2022/05/01 14:10:26;;;;;;;4.90;3.10;;;;;;;;;;5037507;28;20717;-61
2022/05/01 14:12:52;;;;;;;4.50;2.83;;;;;;;;;;5035027;28;20471;-61
2022/05/01 14:15:19;;;;;;;4.60;3.17;;;;;;;;;;5036214;28;20057;-61
2022/05/01 14:17:45;;;;;;;4.33;3.10;;;;;;;;;;5038753;28;20606;-61
2022/05/01 14:20:11;;;;;;;4.27;2.80;;;;;;;;;;5038194;28;20045;-61
2022/05/01 14:22:40;;;;;;;3.77;2.97;;;;;;;;;;5038054;28;20057;-61
2022/05/01 14:25:08;;;;;;;5.83;3.10;;;;;;;;;;5040639;28;20428;-61
2022/05/01 14:27:34;;;;;;;7.17;2.93;;;;;;;;;;5042608;28;20389;-61
2022/05/01 14:30:00;;;;;;;3.97;2.73;;;;;;;;;;5037991;28;20682;-61
2022/05/01 14:32:40;;;;;;;4.07;3.03;;;;;;;;;;5039468;28;20060;-61
2022/05/01 14:35:10;;;;;;;5.63;3.50;;;;;;;;;;5043454;28;20076;-61
2022/05/01 14:37:57;;;;;;;4.17;2.57;;;;;;;;;;5039688;28;20866;-61
2022/05/01 14:40:26;;;;;;;4.83;3.10;;;;;;;;;;5039825;28;20042;-61
2022/05/01 14:42:53;;;;;;;4.33;3.17;;;;;;;;;;5032396;28;20041;-61
2022/05/01 14:45:26;;;;;;;4.40;3.17;;;;;;;;;;5028971;28;20128;-60
2022/05/01 14:48:01;;;;;;;3.75;2.90;;;;;;;;;;5031923;28;20080;-61
2022/05/01 14:50:29;;;;;;;6.87;3.20;;;;;;;;;;5043301;28;20052;-61
2022/05/01 14:52:55;;;;;;;5.93;3.00;;;;;;;;;;5036937;28;20385;-61
2022/05/01 14:55:23;;;;;;;4.23;3.10;;;;;;;;;;5036758;28;20083;-61
2022/05/01 14:57:52;;;;;;;4.13;3.10;;;;;;;;;;5036276;28;20045;-61
2022/05/01 15:08:30;;;;;;;6.87;3.13;;;;;;;;;;5030083;28;20049;-61
2022/05/01 15:10:57;;;;;;;5.47;2.90;;;;;;;;;;5029729;28;20605;-61
2022/05/01 15:13:23;;;;;;;5.03;2.87;;;;;;;;;;5029014;28;20084;-61
2022/05/01 15:16:03;;;;;;;6.67;3.30;;;;;;;;;;5032179;28;20049;-61
2022/05/01 15:18:31;;;;;;;3.43;2.80;;;;;;;;;;5028974;28;20107;-60
2022/05/01 15:21:16;;;;;;;5.47;2.40;;;;;;;;;;5031994;28;20103;-61
2022/05/01 15:23:47;;;;;;;3.90;3.00;;;;;;;;;;5040149;28;20045;-61
2022/05/01 15:26:14;;;;;;;4.20;2.77;;;;;;;;;;5040485;28;20068;-61
2022/05/01 15:28:40;;;;;;;4.73;2.80;;;;;;;;;;5038614;28;20140;-61